Time;durP1;ratioP1;P1;durP2;ratioP2;P2;SDS_P1;SDS_P2;PMS_P1;PMS_P2;Temp;Humidity;BMP_temperature;BMP_pressure;BME280_temperature;BME280_humidity;BME280_pressure;Samples;Min_cycle;Max_cycle;Signal;HPM_P1;HPM_P2
2023/06/06 00:01:11;;;;;;;6.25;2.53;;;;;;;;;;5047224;28;20397;-76
2023/06/06 00:03:36;;;;;;;6.40;2.75;;;;;;;;;;5047068;28;20021;-76
2023/06/06 00:06:02;;;;;;;8.65;2.83;;;;;;;;;;5047418;28;20018;-76
2023/06/06 00:08:28;;;;;;;8.55;2.67;;;;;;;;;;5046643;28;20061;-76
2023/06/06 00:10:54;;;;;;;4.07;2.38;;;;;;;;;;5047080;28;20029;-77
2023/06/06 00:13:20;;;;;;;6.75;2.40;;;;;;;;;;5046738;28;20079;-76
2023/06/06 00:15:46;;;;;;;5.32;2.70;;;;;;;;;;5047379;28;20040;-76
2023/06/06 00:18:11;;;;;;;3.95;2.70;;;;;;;;;;5046849;28;20029;-77
2023/06/06 00:20:38;;;;;;;7.13;2.95;;;;;;;;;;5046656;28;20606;-77
2023/06/06 00:23:06;;;;;;;5.47;2.63;;;;;;;;;;5081528;28;20029;-76
2023/06/06 00:25:31;;;;;;;6.30;2.63;;;;;;;;;;5050642;28;20024;-76
2023/06/06 00:27:57;;;;;;;3.78;2.22;;;;;;;;;;5050681;28;20040;-76
2023/06/06 00:30:22;;;;;;;5.15;2.20;;;;;;;;;;5051330;28;20461;-76
2023/06/06 00:32:47;;;;;;;3.60;2.30;;;;;;;;;;5051275;28;20420;-76
2023/06/06 00:35:13;;;;;;;4.65;2.35;;;;;;;;;;5051536;28;20389;-77
2023/06/06 00:37:38;;;;;;;4.35;2.55;;;;;;;;;;5051302;28;20021;-76
2023/06/06 00:40:06;;;;;;;5.20;2.42;;;;;;;;;;5051276;28;20048;-76
2023/06/06 00:42:31;;;;;;;4.70;2.45;;;;;;;;;;5050389;28;20040;-76
2023/06/06 00:44:57;;;;;;;5.40;2.17;;;;;;;;;;5050498;28;20021;-76
2023/06/06 00:47:23;;;;;;;5.47;2.30;;;;;;;;;;5051100;28;20028;-76
2023/06/06 00:49:48;;;;;;;5.45;2.67;;;;;;;;;;5049425;28;20075;-76
2023/06/06 00:52:15;;;;;;;5.13;2.30;;;;;;;;;;5049608;28;20409;-76
2023/06/06 00:54:42;;;;;;;4.25;2.60;;;;;;;;;;5050739;28;20108;-76
2023/06/06 00:57:09;;;;;;;4.25;2.50;;;;;;;;;;5049908;28;20041;-76
2023/06/06 00:59:37;;;;;;;6.22;2.47;;;;;;;;;;5050046;28;20059;-77
2023/06/06 01:02:04;;;;;;;4.75;2.20;;;;;;;;;;5050591;28;20047;-77
2023/06/06 01:04:29;;;;;;;3.53;2.42;;;;;;;;;;5050539;28;20025;-77
2023/06/06 01:06:55;;;;;;;6.35;2.20;;;;;;;;;;5049961;28;20025;-76
2023/06/06 01:09:20;;;;;;;4.30;2.55;;;;;;;;;;5049627;28;20397;-76
2023/06/06 01:12:00;;;;;;;4.47;2.83;;;;;;;;;;5050030;28;20112;-76
2023/06/06 01:14:26;;;;;;;4.78;2.70;;;;;;;;;;5050329;28;20032;-77
2023/06/06 01:16:52;;;;;;;3.33;2.33;;;;;;;;;;5049976;28;20028;-76
2023/06/06 01:19:20;;;;;;;5.05;2.60;;;;;;;;;;5049592;28;20060;-76
2023/06/06 01:21:46;;;;;;;6.72;2.20;;;;;;;;;;5049159;28;20029;-76
2023/06/06 01:24:12;;;;;;;5.13;2.40;;;;;;;;;;5049955;28;20032;-76
2023/06/06 01:26:37;;;;;;;4.53;2.72;;;;;;;;;;5050589;28;20374;-77
2023/06/06 01:29:03;;;;;;;5.63;2.60;;;;;;;;;;5050460;28;20027;-77
2023/06/06 01:31:43;;;;;;;4.38;2.83;;;;;;;;;;5050201;28;20408;-76
2023/06/06 01:34:17;;;;;;;4.80;2.65;;;;;;;;;;5049486;28;20024;-76
2023/06/06 01:36:53;;;;;;;5.40;3.05;;;;;;;;;;5048996;28;20513;-77
2023/06/06 01:39:22;;;;;;;4.05;2.53;;;;;;;;;;5049109;28;20041;-77
2023/06/06 01:41:53;;;;;;;4.35;2.50;;;;;;;;;;5050185;28;20036;-77
2023/06/06 01:44:21;;;;;;;3.53;2.35;;;;;;;;;;5049896;28;20033;-77
2023/06/06 01:46:47;;;;;;;4.63;2.60;;;;;;;;;;5051001;28;20048;-76
2023/06/06 01:49:13;;;;;;;4.20;2.50;;;;;;;;;;5050470;28;20036;-76
2023/06/06 01:51:39;;;;;;;5.35;2.70;;;;;;;;;;5049767;28;20029;-76
2023/06/06 01:54:05;;;;;;;7.15;2.50;;;;;;;;;;5049485;28;20033;-76
2023/06/06 01:56:33;;;;;;;4.97;2.60;;;;;;;;;;5049781;28;20026;-76
2023/06/06 01:59:00;;;;;;;6.13;2.45;;;;;;;;;;5049734;28;20063;-77
2023/06/06 02:01:26;;;;;;;5.68;2.10;;;;;;;;;;5049779;28;20577;-76
2023/06/06 02:03:51;;;;;;;3.78;2.40;;;;;;;;;;5049806;28;20617;-76
2023/06/06 02:06:19;;;;;;;6.55;2.58;;;;;;;;;;5049860;28;20098;-77
2023/06/06 02:08:45;;;;;;;4.28;2.50;;;;;;;;;;5049424;28;20075;-76
2023/06/06 02:11:10;;;;;;;5.45;2.42;;;;;;;;;;5049019;28;20037;-76
2023/06/06 02:13:36;;;;;;;6.57;2.33;;;;;;;;;;5047721;28;20082;-76
2023/06/06 02:16:01;;;;;;;5.75;2.42;;;;;;;;;;5048649;28;20091;-76
2023/06/06 02:18:26;;;;;;;6.47;2.45;;;;;;;;;;5049482;28;20033;-76
2023/06/06 02:20:52;;;;;;;5.70;2.55;;;;;;;;;;5048810;28;20025;-76
2023/06/06 02:23:19;;;;;;;4.22;2.13;;;;;;;;;;5048119;28;20017;-76
2023/06/06 02:25:44;;;;;;;5.38;2.40;;;;;;;;;;5048423;28;20105;-77
2023/06/06 02:28:11;;;;;;;6.63;2.88;;;;;;;;;;5048570;28;20107;-76
2023/06/06 02:30:36;;;;;;;3.13;2.20;;;;;;;;;;5048159;28;20059;-77
2023/06/06 02:33:02;;;;;;;8.82;2.47;;;;;;;;;;5048437;28;20021;-76
2023/06/06 02:35:28;;;;;;;3.90;2.20;;;;;;;;;;5048311;28;20028;-76
2023/06/06 02:37:53;;;;;;;3.88;2.40;;;;;;;;;;5046788;28;20021;-76
2023/06/06 02:40:20;;;;;;;4.30;2.33;;;;;;;;;;5048260;28;20048;-77
2023/06/06 02:42:45;;;;;;;3.67;2.60;;;;;;;;;;5049043;28;20107;-76
2023/06/06 02:45:11;;;;;;;6.13;2.15;;;;;;;;;;5047212;28;20078;-76
2023/06/06 02:47:36;;;;;;;4.07;2.50;;;;;;;;;;5048043;28;20051;-77
2023/06/06 02:50:03;;;;;;;3.22;2.33;;;;;;;;;;5048060;28;20386;-77
2023/06/06 02:52:31;;;;;;;8.07;2.58;;;;;;;;;;5047569;28;20021;-77
2023/06/06 02:54:57;;;;;;;5.22;2.47;;;;;;;;;;5047737;28;20059;-76
2023/06/06 02:57:22;;;;;;;6.53;2.45;;;;;;;;;;5047924;28;20025;-77
2023/06/06 02:59:48;;;;;;;3.80;2.63;;;;;;;;;;5048424;28;20028;-76
2023/06/06 03:02:18;;;;;;;6.75;2.53;;;;;;;;;;5046343;28;20062;-78
2023/06/06 03:04:44;;;;;;;5.65;2.60;;;;;;;;;;5047456;28;20029;-76
2023/06/06 03:07:10;;;;;;;3.05;2.13;;;;;;;;;;5047237;28;20024;-76
2023/06/06 03:09:37;;;;;;;4.13;2.53;;;;;;;;;;5047885;28;20499;-76
2023/06/06 03:12:03;;;;;;;7.28;2.50;;;;;;;;;;5079512;28;20032;-77
2023/06/06 03:14:28;;;;;;;5.85;2.50;;;;;;;;;;5047555;28;20036;-76
2023/06/06 03:16:55;;;;;;;5.13;2.40;;;;;;;;;;5047408;28;20021;-76
2023/06/06 03:19:22;;;;;;;6.78;2.28;;;;;;;;;;5047774;28;20029;-76
2023/06/06 03:21:47;;;;;;;5.53;2.40;;;;;;;;;;5079983;28;20170;-76
2023/06/06 03:24:13;;;;;;;6.88;2.58;;;;;;;;;;5047990;28;20439;-76
2023/06/06 03:26:39;;;;;;;7.20;2.40;;;;;;;;;;5048287;28;20488;-77
2023/06/06 03:29:05;;;;;;;4.93;2.47;;;;;;;;;;5048326;28;20025;-76
2023/06/06 03:31:31;;;;;;;5.32;2.45;;;;;;;;;;5047230;28;20473;-76
2023/06/06 03:33:57;;;;;;;5.97;2.30;;;;;;;;;;5047457;28;20036;-77
2023/06/06 03:36:22;;;;;;;3.63;2.20;;;;;;;;;;5047516;28;20032;-76
2023/06/06 03:38:48;;;;;;;5.63;2.40;;;;;;;;;;5047551;28;20041;-76
2023/06/06 03:41:14;;;;;;;5.55;2.13;;;;;;;;;;5046843;28;20033;-76
2023/06/06 03:43:43;;;;;;;5.82;2.40;;;;;;;;;;5047824;28;20032;-77
2023/06/06 03:46:08;;;;;;;7.60;2.45;;;;;;;;;;5047564;28;20025;-76
2023/06/06 03:48:34;;;;;;;7.53;2.10;;;;;;;;;;5047361;28;20025;-76
2023/06/06 03:51:00;;;;;;;3.78;2.22;;;;;;;;;;5047134;28;20033;-76
2023/06/06 03:53:25;;;;;;;4.68;1.98;;;;;;;;;;5047169;28;20021;-76
2023/06/06 03:55:51;;;;;;;4.60;2.30;;;;;;;;;;5048217;28;20288;-76
2023/06/06 03:58:18;;;;;;;4.70;2.00;;;;;;;;;;5051367;28;20575;-76
2023/06/06 04:00:45;;;;;;;5.70;2.20;;;;;;;;;;5051868;28;20504;-76
2023/06/06 04:03:10;;;;;;;3.88;2.20;;;;;;;;;;5051016;28;20044;-76
2023/06/06 04:05:36;;;;;;;8.40;2.40;;;;;;;;;;5083332;28;20032;-76
2023/06/06 04:08:02;;;;;;;3.72;2.30;;;;;;;;;;5083671;28;20025;-76
2023/06/06 04:10:28;;;;;;;8.00;2.35;;;;;;;;;;5051064;28;20488;-76
2023/06/06 04:12:53;;;;;;;3.67;2.08;;;;;;;;;;5050784;28;20025;-76
2023/06/06 04:15:19;;;;;;;4.10;2.20;;;;;;;;;;5051281;28;20028;-75
2023/06/06 04:17:45;;;;;;;4.30;2.08;;;;;;;;;;5051169;28;20025;-76
2023/06/06 04:20:11;;;;;;;5.53;2.15;;;;;;;;;;5051289;28;20033;-76
2023/06/06 04:22:37;;;;;;;4.95;2.17;;;;;;;;;;5050428;28;20032;-76
2023/06/06 04:25:02;;;;;;;5.55;2.38;;;;;;;;;;5051270;28;20029;-76
2023/06/06 04:27:28;;;;;;;2.75;2.00;;;;;;;;;;5051195;28;20065;-76
2023/06/06 04:29:57;;;;;;;2.50;1.90;;;;;;;;;;5051440;28;20060;-76
2023/06/06 04:32:23;;;;;;;5.18;2.35;;;;;;;;;;5050278;28;20021;-76
2023/06/06 04:34:51;;;;;;;5.28;2.40;;;;;;;;;;5050868;28;20071;-77
2023/06/06 04:37:18;;;;;;;4.10;2.40;;;;;;;;;;5051079;28;20056;-76
2023/06/06 04:39:43;;;;;;;5.72;2.38;;;;;;;;;;5051163;28;20059;-77
2023/06/06 04:42:08;;;;;;;10.38;2.47;;;;;;;;;;5050907;28;20021;-77
2023/06/06 04:44:41;;;;;;;7.03;2.20;;;;;;;;;;5051051;28;20061;-76
2023/06/06 04:47:08;;;;;;;3.38;2.13;;;;;;;;;;5050517;28;20032;-75
2023/06/06 04:49:38;;;;;;;4.57;2.33;;;;;;;;;;5050443;28;20024;-77
2023/06/06 04:52:10;;;;;;;10.90;2.40;;;;;;;;;;5049560;28;20021;-76
2023/06/06 04:54:39;;;;;;;8.32;2.47;;;;;;;;;;5050316;28;20060;-76
2023/06/06 04:57:09;;;;;;;5.45;2.65;;;;;;;;;;5050400;28;20481;-76
2023/06/06 04:59:37;;;;;;;7.20;2.55;;;;;;;;;;5050677;28;20069;-76
2023/06/06 05:02:03;;;;;;;6.30;2.80;;;;;;;;;;5049815;28;20032;-76
2023/06/06 05:04:31;;;;;;;6.05;2.13;;;;;;;;;;5050068;28;20072;-75
2023/06/06 05:06:57;;;;;;;6.82;2.40;;;;;;;;;;5049045;28;20021;-76
2023/06/06 05:09:23;;;;;;;12.25;2.80;;;;;;;;;;5050077;28;20033;-76
2023/06/06 05:11:51;;;;;;;4.70;2.33;;;;;;;;;;5050487;28;20508;-77
2023/06/06 05:14:17;;;;;;;11.18;2.70;;;;;;;;;;5050690;28;20047;-77
2023/06/06 05:16:46;;;;;;;6.47;2.70;;;;;;;;;;5049938;28;20066;-77
2023/06/06 05:19:14;;;;;;;5.57;2.50;;;;;;;;;;5049674;28;20025;-77
2023/06/06 05:21:39;;;;;;;6.13;2.60;;;;;;;;;;5049945;28;20124;-77
2023/06/06 05:24:05;;;;;;;6.20;2.90;;;;;;;;;;5049377;28;20112;-77
2023/06/06 05:26:30;;;;;;;5.57;2.40;;;;;;;;;;5049691;28;20362;-76
2023/06/06 05:28:56;;;;;;;8.05;2.80;;;;;;;;;;5049853;28;20097;-76
2023/06/06 05:31:21;;;;;;;5.00;2.50;;;;;;;;;;5049490;28;20101;-75
2023/06/06 05:33:47;;;;;;;6.35;3.05;;;;;;;;;;5049843;28;20080;-75
2023/06/06 05:36:13;;;;;;;5.55;2.47;;;;;;;;;;5050263;28;20025;-75
2023/06/06 05:38:39;;;;;;;7.88;2.70;;;;;;;;;;5049749;28;20045;-74
2023/06/06 05:41:05;;;;;;;7.10;2.78;;;;;;;;;;5049452;28;20060;-74
2023/06/06 05:43:31;;;;;;;3.53;2.50;;;;;;;;;;5048842;28;20110;-74
2023/06/06 05:45:57;;;;;;;4.40;2.38;;;;;;;;;;5049323;28;20099;-75
2023/06/06 05:48:22;;;;;;;4.45;2.20;;;;;;;;;;5049166;28;20184;-75
2023/06/06 05:50:48;;;;;;;5.78;2.47;;;;;;;;;;5049113;28;20149;-75
2023/06/06 05:53:14;;;;;;;7.50;2.70;;;;;;;;;;5049027;28;20027;-76
2023/06/06 05:55:39;;;;;;;5.88;2.60;;;;;;;;;;5049103;28;20029;-75
2023/06/06 05:58:05;;;;;;;4.97;2.50;;;;;;;;;;5048958;28;20916;-75
2023/06/06 06:00:32;;;;;;;6.07;2.60;;;;;;;;;;5049167;28;20032;-76
2023/06/06 06:02:59;;;;;;;10.77;2.72;;;;;;;;;;5048705;28;20152;-75
2023/06/06 06:05:29;;;;;;;8.52;2.88;;;;;;;;;;5048919;28;20025;-75
2023/06/06 06:07:59;;;;;;;6.70;2.77;;;;;;;;;;5048252;28;20025;-75
2023/06/06 06:10:29;;;;;;;8.40;2.60;;;;;;;;;;5081343;28;21001;-75
2023/06/06 06:12:55;;;;;;;5.05;2.63;;;;;;;;;;5048875;28;20553;-75
2023/06/06 06:15:21;;;;;;;3.47;2.35;;;;;;;;;;5048792;28;20029;-75
2023/06/06 06:17:47;;;;;;;5.22;2.42;;;;;;;;;;5048752;28;20025;-76
2023/06/06 06:20:15;;;;;;;6.30;2.80;;;;;;;;;;5048143;28;20560;-75
2023/06/06 06:22:42;;;;;;;7.65;3.00;;;;;;;;;;5048521;28;20021;-75
2023/06/06 06:25:08;;;;;;;7.80;3.00;;;;;;;;;;5048396;28;20029;-75
2023/06/06 06:27:37;;;;;;;7.43;2.67;;;;;;;;;;5048690;28;20017;-75
2023/06/06 06:30:04;;;;;;;6.85;2.58;;;;;;;;;;5049212;28;20035;-75
2023/06/06 06:32:34;;;;;;;10.32;2.85;;;;;;;;;;5047879;28;20029;-75
2023/06/06 06:35:01;;;;;;;5.57;2.80;;;;;;;;;;5048475;28;20086;-75
2023/06/06 06:37:30;;;;;;;6.10;2.72;;;;;;;;;;5048690;28;20515;-75
2023/06/06 06:39:56;;;;;;;8.23;2.72;;;;;;;;;;5048543;28;20524;-75
2023/06/06 06:42:22;;;;;;;9.90;3.17;;;;;;;;;;5048774;28;20028;-76
2023/06/06 06:44:47;;;;;;;6.65;2.92;;;;;;;;;;5048885;28;20025;-75
2023/06/06 06:47:13;;;;;;;9.10;2.88;;;;;;;;;;5048383;28;20045;-74
2023/06/06 06:49:41;;;;;;;7.40;2.78;;;;;;;;;;5048306;28;20074;-75
2023/06/06 06:52:08;;;;;;;10.82;2.80;;;;;;;;;;5048113;28;20025;-75
2023/06/06 06:54:48;;;;;;;5.55;2.60;;;;;;;;;;5048310;28;20017;-76
2023/06/06 06:57:13;;;;;;;9.38;2.80;;;;;;;;;;5048370;28;20083;-75
2023/06/06 06:59:40;;;;;;;7.72;3.13;;;;;;;;;;5047917;28;20021;-75
2023/06/06 07:02:08;;;;;;;6.60;2.75;;;;;;;;;;5047705;28;20053;-75
2023/06/06 07:04:34;;;;;;;7.53;2.70;;;;;;;;;;5047733;28;20105;-74
2023/06/06 07:06:59;;;;;;;11.15;2.92;;;;;;;;;;5047676;28;20063;-75
2023/06/06 07:09:25;;;;;;;6.72;2.50;;;;;;;;;;5062460;28;20491;-75
2023/06/06 07:11:50;;;;;;;5.43;2.40;;;;;;;;;;5068093;28;20047;-77
2023/06/06 07:14:15;;;;;;;5.15;2.55;;;;;;;;;;5067276;28;20024;-75
2023/06/06 07:16:43;;;;;;;7.43;2.40;;;;;;;;;;5067543;28;20027;-75
2023/06/06 07:19:08;;;;;;;5.30;2.13;;;;;;;;;;5067160;28;20024;-76
2023/06/06 07:21:34;;;;;;;5.22;2.30;;;;;;;;;;5066162;28;20024;-75
2023/06/06 07:23:59;;;;;;;8.43;2.40;;;;;;;;;;5067748;28;20032;-75
2023/06/06 07:26:26;;;;;;;7.78;2.80;;;;;;;;;;5067066;28;20032;-75
2023/06/06 07:28:52;;;;;;;4.50;2.47;;;;;;;;;;5067278;28;20028;-75
2023/06/06 07:31:17;;;;;;;5.68;2.53;;;;;;;;;;5067832;28;20028;-75
2023/06/06 07:33:42;;;;;;;6.88;2.78;;;;;;;;;;5067710;28;20029;-76
2023/06/06 07:36:08;;;;;;;3.80;2.25;;;;;;;;;;5067599;28;20093;-75
2023/06/06 07:38:34;;;;;;;6.45;2.20;;;;;;;;;;5066660;28;20071;-76
2023/06/06 07:41:01;;;;;;;5.53;2.50;;;;;;;;;;5067253;28;20052;-76
2023/06/06 07:43:26;;;;;;;7.55;2.30;;;;;;;;;;5067575;28;20388;-75
2023/06/06 07:45:52;;;;;;;6.57;2.58;;;;;;;;;;5067600;28;20032;-75
2023/06/06 07:48:18;;;;;;;10.20;2.40;;;;;;;;;;5067388;28;20496;-75
2023/06/06 07:50:44;;;;;;;5.10;2.70;;;;;;;;;;5067684;28;20077;-75
2023/06/06 07:53:10;;;;;;;5.80;2.40;;;;;;;;;;5067502;28;20033;-76
2023/06/06 07:55:37;;;;;;;5.93;2.33;;;;;;;;;;5067355;28;20029;-75
2023/06/06 07:58:10;;;;;;;4.75;2.33;;;;;;;;;;5067049;28;20033;-75
2023/06/06 08:00:44;;;;;;;8.35;3.10;;;;;;;;;;5067408;28;20468;-75
2023/06/06 08:03:11;;;;;;;5.53;2.30;;;;;;;;;;5066898;28;20037;-75
2023/06/06 08:05:38;;;;;;;5.72;2.55;;;;;;;;;;5065834;28;20116;-75
2023/06/06 08:08:06;;;;;;;7.38;2.70;;;;;;;;;;5067257;28;20032;-75
2023/06/06 08:10:31;;;;;;;7.97;2.20;;;;;;;;;;5068003;28;20082;-76
2023/06/06 08:12:57;;;;;;;3.47;2.10;;;;;;;;;;5067692;28;20024;-76
2023/06/06 08:15:23;;;;;;;5.28;2.50;;;;;;;;;;5065564;28;20408;-75
2023/06/06 08:17:48;;;;;;;5.95;2.10;;;;;;;;;;5067158;28;20055;-75
2023/06/06 08:20:14;;;;;;;3.97;2.20;;;;;;;;;;5067407;28;20025;-75
2023/06/06 08:22:50;;;;;;;6.80;2.30;;;;;;;;;;5067628;28;20021;-75
2023/06/06 08:25:15;;;;;;;4.55;2.03;;;;;;;;;;5067097;28;20024;-76
2023/06/06 08:27:42;;;;;;;6.30;2.30;;;;;;;;;;5067077;28;20024;-75
2023/06/06 08:30:08;;;;;;;3.63;2.28;;;;;;;;;;5067144;28;20024;-75
2023/06/06 08:32:34;;;;;;;3.45;2.20;;;;;;;;;;5067750;28;20029;-76
2023/06/06 08:34:59;;;;;;;5.18;2.20;;;;;;;;;;5066730;28;20520;-76
2023/06/06 08:37:25;;;;;;;6.65;2.30;;;;;;;;;;5066361;28;20021;-76
2023/06/06 08:39:50;;;;;;;4.68;2.45;;;;;;;;;;5065647;28;20060;-75
2023/06/06 08:42:18;;;;;;;3.33;1.98;;;;;;;;;;5067459;28;20107;-75
2023/06/06 08:44:45;;;;;;;5.10;2.28;;;;;;;;;;5069981;28;20616;-75
2023/06/06 08:47:12;;;;;;;5.45;2.20;;;;;;;;;;5070955;28;20496;-75
2023/06/06 08:49:37;;;;;;;4.18;2.30;;;;;;;;;;5070973;28;20052;-76
2023/06/06 08:52:05;;;;;;;5.13;2.15;;;;;;;;;;5071068;28;20071;-75
2023/06/06 08:54:32;;;;;;;6.03;2.20;;;;;;;;;;5070092;28;20073;-75
2023/06/06 08:56:58;;;;;;;5.20;2.28;;;;;;;;;;5070380;28;20100;-76
2023/06/06 08:59:25;;;;;;;3.65;1.90;;;;;;;;;;5070320;28;20386;-75
2023/06/06 09:01:53;;;;;;;4.00;2.05;;;;;;;;;;5071048;28;20032;-75
2023/06/06 09:04:20;;;;;;;4.45;1.92;;;;;;;;;;5071135;28;20033;-76
2023/06/06 09:06:46;;;;;;;3.40;2.10;;;;;;;;;;5070211;28;20036;-75
2023/06/06 09:09:13;;;;;;;3.70;2.10;;;;;;;;;;5070143;28;20028;-76
2023/06/06 09:11:39;;;;;;;4.53;2.10;;;;;;;;;;5070898;28;20025;-75
2023/06/06 09:14:05;;;;;;;2.80;1.80;;;;;;;;;;5068960;28;20028;-75
2023/06/06 09:16:31;;;;;;;2.78;2.05;;;;;;;;;;5070502;28;20043;-75
2023/06/06 09:18:57;;;;;;;4.88;2.10;;;;;;;;;;5070225;28;20028;-76
2023/06/06 09:21:27;;;;;;;3.63;2.10;;;;;;;;;;5070437;28;20062;-75
2023/06/06 09:23:54;;;;;;;3.65;2.10;;;;;;;;;;5068942;28;20120;-75
2023/06/06 09:26:21;;;;;;;4.18;2.30;;;;;;;;;;5070131;28;20036;-75
2023/06/06 09:28:47;;;;;;;5.70;2.40;;;;;;;;;;5069551;28;20036;-75
2023/06/06 09:31:26;;;;;;;4.55;2.45;;;;;;;;;;5068657;28;20459;-75
2023/06/06 09:33:56;;;;;;;5.13;2.58;;;;;;;;;;5070399;28;20104;-75
2023/06/06 09:36:27;;;;;;;3.53;2.40;;;;;;;;;;5068731;28;20024;-75
2023/06/06 09:38:54;;;;;;;4.90;2.67;;;;;;;;;;5069971;28;20044;-76
2023/06/06 09:41:21;;;;;;;4.07;2.42;;;;;;;;;;5069915;28;20454;-75
2023/06/06 09:43:47;;;;;;;6.07;2.60;;;;;;;;;;5069423;28;20090;-75
2023/06/06 09:46:17;;;;;;;6.63;2.35;;;;;;;;;;5069599;28;20028;-75
2023/06/06 09:48:53;;;;;;;4.40;2.50;;;;;;;;;;5069610;28;20112;-75
2023/06/06 09:51:19;;;;;;;3.80;2.03;;;;;;;;;;5068954;28;20374;-76
2023/06/06 09:53:50;;;;;;;3.97;2.15;;;;;;;;;;5068757;28;20035;-76
2023/06/06 09:56:20;;;;;;;4.22;2.38;;;;;;;;;;5068865;28;20078;-75
2023/06/06 09:58:46;;;;;;;4.53;2.35;;;;;;;;;;5069948;28;20020;-75
2023/06/06 10:01:12;;;;;;;3.13;2.20;;;;;;;;;;5102193;28;20035;-75
2023/06/06 10:03:38;;;;;;;4.22;2.30;;;;;;;;;;5069742;28;20039;-75
2023/06/06 10:06:06;;;;;;;3.38;2.38;;;;;;;;;;5068914;28;20016;-75
2023/06/06 10:08:33;;;;;;;3.63;2.40;;;;;;;;;;5068666;28;20042;-75
2023/06/06 10:10:58;;;;;;;4.25;2.53;;;;;;;;;;5068859;28;20553;-75
2023/06/06 10:13:24;;;;;;;5.22;2.60;;;;;;;;;;5069155;28;20017;-76
2023/06/06 10:15:50;;;;;;;4.32;2.50;;;;;;;;;;5067820;28;20016;-76
2023/06/06 10:18:16;;;;;;;3.67;2.60;;;;;;;;;;5069705;28;20052;-76
2023/06/06 10:20:44;;;;;;;3.60;2.53;;;;;;;;;;5069105;28;20525;-75
2023/06/06 10:23:10;;;;;;;3.72;2.53;;;;;;;;;;5069610;28;20025;-75
2023/06/06 10:25:38;;;;;;;6.38;3.00;;;;;;;;;;5068814;28;20021;-76
2023/06/06 10:28:17;;;;;;;4.28;2.50;;;;;;;;;;5067540;28;20039;-75
2023/06/06 10:30:42;;;;;;;6.80;3.10;;;;;;;;;;5068600;28;20033;-75
2023/06/06 10:33:45;;;;;;;5.00;2.78;;;;;;;;;;5067255;28;20028;-75
2023/06/06 10:36:16;;;;;;;3.92;2.78;;;;;;;;;;5068739;28;20029;-75
2023/06/06 10:39:17;;;;;;;5.07;2.80;;;;;;;;;;5069245;28;20476;-76
2023/06/06 10:41:58;;;;;;;4.55;2.80;;;;;;;;;;5068320;28;20614;-75
2023/06/06 10:44:45;;;;;;;14.90;2.78;;;;;;;;;;5067974;28;20110;-74
2023/06/06 10:47:27;;;;;;;7.10;2.90;;;;;;;;;;5068485;28;20028;-76
2023/06/06 10:50:08;;;;;;;5.63;2.85;;;;;;;;;;5068659;28;20024;-76
2023/06/06 10:52:53;;;;;;;;;;;;;;;;;;5069145;28;20060;-76
2023/06/06 10:55:25;;;;;;;6.47;3.28;;;;;;;;;;5068472;28;19912;-76
2023/06/06 10:57:52;;;;;;;4.50;2.97;;;;;;;;;;5068608;28;20504;-74
2023/06/06 11:00:17;;;;;;;7.28;3.00;;;;;;;;;;5067944;28;20032;-74
2023/06/06 11:02:46;;;;;;;5.10;2.75;;;;;;;;;;5068261;28;20031;-75
2023/06/06 11:05:11;;;;;;;5.20;3.17;;;;;;;;;;5066881;28;20033;-76
2023/06/06 11:07:38;;;;;;;4.63;2.75;;;;;;;;;;5067635;28;20094;-75
2023/06/06 11:10:03;;;;;;;5.50;3.03;;;;;;;;;;5068160;28;20097;-75
2023/06/06 11:12:30;;;;;;;9.23;3.10;;;;;;;;;;5068031;28;20032;-76
2023/06/06 11:15:06;;;;;;;6.72;2.80;;;;;;;;;;5067727;28;20028;-75
2023/06/06 11:17:43;;;;;;;3.45;2.60;;;;;;;;;;5068073;28;20028;-75
2023/06/06 11:20:20;;;;;;;9.50;2.90;;;;;;;;;;5067558;28;20028;-75
2023/06/06 11:23:06;;;;;;;5.55;2.70;;;;;;;;;;5067413;28;20027;-75
2023/06/06 11:25:34;;;;;;;4.68;2.80;;;;;;;;;;5067398;28;20055;-76
2023/06/06 11:28:01;;;;;;;5.47;2.70;;;;;;;;;;5067531;28;20031;-76
2023/06/06 11:30:34;;;;;;;5.32;2.60;;;;;;;;;;5067590;28;20499;-75
2023/06/06 11:33:00;;;;;;;6.97;2.55;;;;;;;;;;5067562;28;20368;-75
2023/06/06 11:35:32;;;;;;;7.97;3.13;;;;;;;;;;5066268;28;20035;-75
2023/06/06 11:37:58;;;;;;;7.28;2.92;;;;;;;;;;5068479;28;20135;-75
2023/06/06 11:40:26;;;;;;;6.45;2.90;;;;;;;;;;5066975;28;20076;-76
2023/06/06 11:42:52;;;;;;;6.20;2.97;;;;;;;;;;5067881;28;20033;-76
2023/06/06 11:45:18;;;;;;;8.00;3.15;;;;;;;;;;5067135;28;20053;-76
2023/06/06 11:47:44;;;;;;;6.35;2.70;;;;;;;;;;5067319;28;20021;-75
2023/06/06 11:50:11;;;;;;;4.97;2.75;;;;;;;;;;5067655;28;20056;-75
2023/06/06 11:53:05;;;;;;;5.13;2.92;;;;;;;;;;5066767;28;20051;-75
2023/06/06 11:55:38;;;;;;;4.30;2.90;;;;;;;;;;5065916;28;20116;-75
2023/06/06 11:58:04;;;;;;;5.05;2.80;;;;;;;;;;5067462;28;20025;-75
2023/06/06 12:00:30;;;;;;;6.43;2.85;;;;;;;;;;5067616;28;20036;-76
2023/06/06 12:02:58;;;;;;;6.78;2.90;;;;;;;;;;5068085;28;20025;-76
2023/06/06 12:05:25;;;;;;;6.85;3.20;;;;;;;;;;5068206;28;20021;-75
2023/06/06 12:07:54;;;;;;;4.97;2.97;;;;;;;;;;5067806;28;20037;-76
2023/06/06 12:10:25;;;;;;;5.47;2.80;;;;;;;;;;5067867;28;20048;-75
2023/06/06 12:12:50;;;;;;;;;;;;;;;;;;5066763;28;20017;-76
2023/06/06 12:15:16;;;;;;;4.43;3.08;;;;;;;;;;5067743;28;19912;-75
2023/06/06 12:17:41;;;;;;;4.88;2.78;;;;;;;;;;5070082;28;20024;-76
2023/06/06 12:20:07;;;;;;;7.43;2.97;;;;;;;;;;5071698;28;20064;-76
2023/06/06 12:22:34;;;;;;;5.22;2.92;;;;;;;;;;5071454;28;20025;-76
2023/06/06 12:24:59;;;;;;;6.32;2.90;;;;;;;;;;5071481;28;20492;-75
2023/06/06 12:27:26;;;;;;;6.68;2.65;;;;;;;;;;5069025;28;20032;-75
2023/06/06 12:29:56;;;;;;;5.97;2.90;;;;;;;;;;5070883;28;20425;-75
2023/06/06 12:32:26;;;;;;;4.95;2.78;;;;;;;;;;5070479;28;20025;-75
2023/06/06 12:35:02;;;;;;;8.05;3.38;;;;;;;;;;5070863;28;20033;-75
2023/06/06 12:37:35;;;;;;;5.53;3.15;;;;;;;;;;5070605;28;20020;-75
2023/06/06 12:40:08;;;;;;;5.72;2.78;;;;;;;;;;5070595;28;20080;-75
2023/06/06 12:42:33;;;;;;;5.47;3.08;;;;;;;;;;5070576;28;20028;-76
2023/06/06 12:44:58;;;;;;;4.75;2.72;;;;;;;;;;5070730;28;20392;-75
2023/06/06 12:47:24;;;;;;;11.07;2.80;;;;;;;;;;5070643;28;20465;-77
2023/06/06 12:49:50;;;;;;;6.95;2.70;;;;;;;;;;5071057;28;20112;-77
2023/06/06 12:52:15;;;;;;;5.07;2.72;;;;;;;;;;5070728;28;20369;-76
2023/06/06 12:54:41;;;;;;;5.25;2.85;;;;;;;;;;5071154;28;20032;-74
2023/06/06 12:57:11;;;;;;;3.88;2.72;;;;;;;;;;5070647;28;20057;-74
2023/06/06 12:59:42;;;;;;;4.75;2.70;;;;;;;;;;5070884;28;20028;-74
2023/06/06 13:02:13;;;;;;;4.22;2.70;;;;;;;;;;5070350;28;20036;-74
2023/06/06 13:04:42;;;;;;;3.17;2.42;;;;;;;;;;5070377;28;20114;-74
2023/06/06 13:07:08;;;;;;;8.50;2.85;;;;;;;;;;5069621;28;20032;-76
2023/06/06 13:09:35;;;;;;;3.88;2.90;;;;;;;;;;5070122;28;20031;-77
2023/06/06 13:12:00;;;;;;;4.72;2.60;;;;;;;;;;5070355;28;20082;-77
2023/06/06 13:14:29;;;;;;;3.95;2.75;;;;;;;;;;5070617;28;20025;-76
2023/06/06 13:16:55;;;;;;;4.35;2.70;;;;;;;;;;5069798;28;20035;-77
2023/06/06 13:19:21;;;;;;;4.85;2.58;;;;;;;;;;5070275;28;20032;-76
2023/06/06 13:21:48;;;;;;;4.15;2.72;;;;;;;;;;5070717;28;20032;-76
2023/06/06 13:24:14;;;;;;;3.88;2.70;;;;;;;;;;5070411;28;20035;-76
2023/06/06 13:26:42;;;;;;;5.07;2.75;;;;;;;;;;5069914;28;20020;-77
2023/06/06 13:29:09;;;;;;;4.82;2.75;;;;;;;;;;5070173;28;20505;-77
2023/06/06 13:31:35;;;;;;;4.38;2.70;;;;;;;;;;5070492;28;20016;-77
2023/06/06 13:34:00;;;;;;;5.47;2.75;;;;;;;;;;5069194;28;20094;-77
2023/06/06 13:36:26;;;;;;;4.22;3.00;;;;;;;;;;5070280;28;20028;-76
2023/06/06 13:38:51;;;;;;;5.55;2.97;;;;;;;;;;5070140;28;20139;-76
2023/06/06 13:41:18;;;;;;;5.82;3.00;;;;;;;;;;5069969;28;20043;-77
2023/06/06 13:43:44;;;;;;;4.18;2.70;;;;;;;;;;5068360;28;20028;-76
2023/06/06 13:46:09;;;;;;;4.35;2.30;;;;;;;;;;5070068;28;20035;-76
2023/06/06 13:48:35;;;;;;;5.93;2.28;;;;;;;;;;5069690;28;20029;-77
2023/06/06 13:51:01;;;;;;;5.47;2.78;;;;;;;;;;5069621;28;20017;-76
2023/06/06 13:53:26;;;;;;;3.13;2.45;;;;;;;;;;5069169;28;20053;-77
2023/06/06 13:55:53;;;;;;;5.07;2.45;;;;;;;;;;5070036;28;20047;-76
2023/06/06 13:58:22;;;;;;;6.18;2.60;;;;;;;;;;5068759;28;20053;-76
2023/06/06 14:00:48;;;;;;;5.32;2.30;;;;;;;;;;5069025;28;20081;-76
2023/06/06 14:03:13;;;;;;;4.53;2.40;;;;;;;;;;5069327;28;20032;-77
2023/06/06 14:05:39;;;;;;;5.35;2.45;;;;;;;;;;5068592;28;20160;-77
2023/06/06 14:08:04;;;;;;;4.82;2.60;;;;;;;;;;5069287;28;20028;-77
2023/06/06 14:10:30;;;;;;;3.42;2.20;;;;;;;;;;5069026;28;20024;-76
2023/06/06 14:12:57;;;;;;;4.22;2.40;;;;;;;;;;5068886;28;20036;-76
2023/06/06 14:15:23;;;;;;;3.53;2.28;;;;;;;;;;5068686;28;20027;-76
2023/06/06 14:17:49;;;;;;;5.72;3.20;;;;;;;;;;5068532;28;20028;-76
2023/06/06 14:20:21;;;;;;;4.13;2.55;;;;;;;;;;5068771;28;20024;-76
2023/06/06 14:22:49;;;;;;;3.88;2.55;;;;;;;;;;5068253;28;20082;-76
2023/06/06 14:25:16;;;;;;;3.30;2.33;;;;;;;;;;5069486;28;20115;-77
2023/06/06 14:27:41;;;;;;;3.35;2.47;;;;;;;;;;5069121;28;20029;-77
2023/06/06 14:30:07;;;;;;;4.03;2.35;;;;;;;;;;5067940;28;20503;-76
2023/06/06 14:32:34;;;;;;;4.68;2.60;;;;;;;;;;5068602;28;20028;-77
2023/06/06 14:35:06;;;;;;;5.28;2.70;;;;;;;;;;5068535;28;20065;-77
2023/06/06 14:37:31;;;;;;;3.95;2.40;;;;;;;;;;5068679;28;20032;-77
2023/06/06 14:39:58;;;;;;;3.17;2.47;;;;;;;;;;5068164;28;20102;-76
2023/06/06 14:42:23;;;;;;;6.43;2.22;;;;;;;;;;5068008;28;20025;-76
2023/06/06 14:44:52;;;;;;;3.15;2.25;;;;;;;;;;5068799;28;20016;-76